Time;durP1;ratioP1;P1;durP2;ratioP2;P2;SDS_P1;SDS_P2;PMS_P1;PMS_P2;Temp;Humidity;BMP_temperature;BMP_pressure;BME280_temperature;BME280_humidity;BME280_pressure;Samples;Min_cycle;Max_cycle;Signal;HPM_P1;HPM_P2
2023/08/24 00:02:06;;;;;;;6.63;6.00;;;27.20;96.00;;;;;;4947930;28;20984;-70
2023/08/24 00:04:32;;;;;;;7.60;6.10;;;27.10;95.90;;;;;;4944451;28;20202;-70
2023/08/24 00:06:57;;;;;;;7.00;6.40;;;27.10;95.90;;;;;;4952807;28;20800;-70
2023/08/24 00:09:23;;;;;;;7.67;6.10;;;27.10;96.00;;;;;;4945052;28;20285;-71
2023/08/24 00:11:49;;;;;;;7.03;6.33;;;27.10;96.10;;;;;;4945940;28;20190;-71
2023/08/24 00:14:14;;;;;;;7.30;5.60;;;27.00;96.00;;;;;;4943752;28;20281;-71
2023/08/24 00:16:40;;;;;;;7.33;5.90;;;27.00;96.10;;;;;;4941133;28;20192;-71
2023/08/24 00:19:06;;;;;;;7.10;6.43;;;27.00;96.10;;;;;;4942060;28;20251;-70
2023/08/24 00:21:32;;;;;;;11.00;6.90;;;27.00;96.30;;;;;;4945588;28;20499;-70
2023/08/24 00:23:59;;;;;;;7.53;5.60;;;26.90;96.20;;;;;;4939291;28;20518;-70
2023/08/24 00:26:25;;;;;;;7.27;6.60;;;26.90;96.30;;;;;;4946299;28;20187;-70
2023/08/24 00:28:51;;;;;;;6.93;5.90;;;26.90;96.30;;;;;;4949052;28;20440;-70
2023/08/24 00:31:17;;;;;;;7.33;6.47;;;26.80;96.40;;;;;;4943553;28;20188;-70
2023/08/24 00:33:43;;;;;;;7.17;6.47;;;26.80;96.40;;;;;;4941638;28;20184;-70
2023/08/24 00:36:09;;;;;;;10.20;6.93;;;26.80;96.50;;;;;;4942942;28;20450;-70
2023/08/24 00:38:34;;;;;;;6.90;6.30;;;26.80;96.50;;;;;;4942592;28;20194;-70
2023/08/24 00:41:00;;;;;;;7.17;6.23;;;26.80;96.60;;;;;;4936664;28;20210;-70
2023/08/24 00:43:27;;;;;;;7.37;6.67;;;26.80;96.60;;;;;;4946432;28;20179;-70
2023/08/24 00:45:55;;;;;;;6.90;6.20;;;26.70;96.60;;;;;;4938886;28;20493;-70
2023/08/24 00:48:25;;;;;;;7.07;6.37;;;26.70;96.70;;;;;;4944443;28;20744;-70
2023/08/24 00:50:59;;;;;;;9.47;6.37;;;26.60;96.70;;;;;;4946330;28;20449;-71
2023/08/24 00:53:26;;;;;;;7.87;6.50;;;26.60;96.70;;;;;;4948483;28;20515;-71
2023/08/24 00:55:52;;;;;;;7.00;6.30;;;26.60;96.70;;;;;;4939496;28;20511;-70
2023/08/24 00:58:19;;;;;;;9.27;6.60;;;26.60;96.80;;;;;;4943881;28;20442;-70
2023/08/24 01:00:45;;;;;;;7.23;6.63;;;26.50;96.70;;;;;;4958339;28;20495;-70
2023/08/24 01:03:10;;;;;;;6.90;6.20;;;26.50;96.70;;;;;;4949809;28;20921;-70
2023/08/24 01:05:36;;;;;;;8.40;6.50;;;26.50;96.70;;;;;;4946945;28;20570;-70
2023/08/24 01:08:02;;;;;;;6.90;6.20;;;26.40;96.60;;;;;;4951304;28;20479;-71
2023/08/24 01:10:38;;;;;;;7.60;6.67;;;26.40;96.60;;;;;;4945511;28;20274;-71
2023/08/24 01:13:18;;;;;;;7.10;6.40;;;26.40;96.60;;;;;;4945526;28;20191;-70
2023/08/24 01:15:55;;;;;;;9.13;7.00;;;26.40;96.80;;;;;;4939413;28;20447;-70
2023/08/24 01:18:23;;;;;;;7.20;6.50;;;26.40;96.90;;;;;;4942930;28;20514;-70
2023/08/24 01:20:50;;;;;;;7.37;6.57;;;26.30;97.10;;;;;;4949483;28;20485;-70
2023/08/24 01:23:32;;;;;;;7.57;6.57;;;26.30;97.30;;;;;;4942709;28;20437;-70
2023/08/24 01:26:06;;;;;;;7.83;7.20;;;26.30;97.40;;;;;;4943409;28;20553;-70
2023/08/24 01:28:32;;;;;;;7.27;6.67;;;26.20;97.60;;;;;;4938672;28;20855;-70
2023/08/24 01:30:58;;;;;;;7.30;6.67;;;26.20;97.70;;;;;;4948350;28;20432;-71
2023/08/24 01:33:24;;;;;;;7.83;7.03;;;26.20;97.80;;;;;;4940388;28;21071;-70
2023/08/24 01:35:50;;;;;;;7.53;6.83;;;26.20;97.90;;;;;;4939838;28;20222;-70
2023/08/24 01:38:16;;;;;;;7.13;6.50;;;26.10;97.90;;;;;;4938868;28;20450;-70
2023/08/24 01:40:57;;;;;;;7.00;6.40;;;26.10;97.90;;;;;;4954798;28;20203;-70
2023/08/24 01:43:30;;;;;;;7.43;6.70;;;26.10;98.00;;;;;;4947524;28;20179;-70
2023/08/24 01:45:58;;;;;;;6.60;5.83;;;26.00;98.00;;;;;;4936610;28;20479;-70
2023/08/24 01:48:24;;;;;;;7.73;6.50;;;26.00;98.00;;;;;;4944614;28;20439;-71
2023/08/24 01:50:51;;;;;;;13.67;7.80;;;26.00;98.10;;;;;;4944837;28;20810;-71
2023/08/24 01:53:17;;;;;;;7.17;6.57;;;26.00;98.20;;;;;;4942930;28;20436;-71
2023/08/24 01:55:45;;;;;;;9.53;6.60;;;26.00;98.20;;;;;;4942750;28;20482;-71
2023/08/24 01:58:10;;;;;;;6.40;5.80;;;26.00;98.30;;;;;;4952400;28;20297;-71
2023/08/24 02:00:36;;;;;;;7.30;6.60;;;26.00;98.40;;;;;;4945179;28;22365;-70
2023/08/24 02:03:02;;;;;;;6.87;6.10;;;26.00;98.50;;;;;;4952514;28;20188;-70
2023/08/24 02:05:28;;;;;;;8.87;5.80;;;25.90;98.40;;;;;;4945555;28;20195;-71
2023/08/24 02:07:54;;;;;;;6.53;5.93;;;25.90;98.60;;;;;;4954827;28;20210;-71
2023/08/24 02:10:20;;;;;;;6.60;5.30;;;25.90;98.60;;;;;;4950359;28;21030;-71
2023/08/24 02:12:46;;;;;;;7.17;5.60;;;25.90;98.60;;;;;;4948585;28;20181;-70
2023/08/24 02:15:11;;;;;;;7.00;6.43;;;25.80;98.50;;;;;;4951596;28;20226;-70
2023/08/24 02:17:37;;;;;;;6.93;5.50;;;25.80;98.50;;;;;;4947417;28;20556;-70
2023/08/24 02:20:03;;;;;;;7.10;6.40;;;25.80;98.50;;;;;;4952509;28;20198;-70
2023/08/24 02:22:30;;;;;;;6.73;6.10;;;25.80;98.60;;;;;;4942504;28;20195;-70
2023/08/24 02:24:56;;;;;;;6.80;5.20;;;25.80;98.60;;;;;;4945909;28;20466;-70
2023/08/24 02:27:21;;;;;;;7.53;6.63;;;25.80;98.60;;;;;;4939998;28;20427;-71
2023/08/24 02:29:47;;;;;;;7.30;6.27;;;25.80;98.60;;;;;;4953000;28;20184;-71
2023/08/24 02:32:12;;;;;;;6.53;5.93;;;25.80;98.70;;;;;;4943498;28;20646;-71
2023/08/24 02:34:38;;;;;;;6.40;5.80;;;25.80;98.70;;;;;;4946410;28;20214;-70
2023/08/24 02:37:04;;;;;;;7.20;6.50;;;25.70;98.80;;;;;;4943585;28;20240;-70
2023/08/24 02:39:30;;;;;;;6.83;6.23;;;25.80;98.80;;;;;;4945775;28;21079;-71
2023/08/24 02:41:55;;;;;;;8.30;6.03;;;25.80;98.80;;;;;;4944518;28;20317;-70
2023/08/24 02:44:21;;;;;;;6.60;5.90;;;25.70;98.80;;;;;;4947707;28;20574;-70
2023/08/24 02:46:48;;;;;;;6.83;5.87;;;25.70;99.00;;;;;;4943293;28;20179;-70
2023/08/24 02:49:14;;;;;;;7.13;5.93;;;25.60;99.00;;;;;;4939363;28;20283;-70
2023/08/24 02:51:40;;;;;;;7.07;6.47;;;25.60;99.20;;;;;;4952199;28;20502;-72
2023/08/24 02:54:06;;;;;;;7.57;6.50;;;25.60;99.20;;;;;;4953377;28;20301;-71
2023/08/24 02:56:31;;;;;;;7.73;6.23;;;25.60;99.40;;;;;;4951404;28;21004;-71
2023/08/24 02:58:57;;;;;;;6.73;6.23;;;25.60;99.50;;;;;;4944715;28;20249;-71
2023/08/24 03:01:22;;;;;;;9.60;6.60;;;25.60;99.50;;;;;;4947321;28;21216;-70
2023/08/24 03:03:48;;;;;;;9.13;6.37;;;25.50;99.50;;;;;;4945663;28;20239;-71
2023/08/24 03:06:14;;;;;;;12.23;7.00;;;25.50;99.40;;;;;;4946249;28;20568;-71
2023/08/24 03:08:39;;;;;;;7.00;6.27;;;25.50;99.90;;;;;;4951544;28;20188;-71
2023/08/24 03:11:05;;;;;;;6.97;6.30;;;25.50;99.60;;;;;;4944530;28;20286;-71
2023/08/24 03:13:31;;;;;;;6.70;6.00;;;25.50;99.70;;;;;;4943664;28;20187;-70
2023/08/24 03:15:56;;;;;;;11.40;7.00;;;25.40;99.70;;;;;;4943656;28;20293;-71
2023/08/24 03:18:22;;;;;;;8.80;7.17;;;25.30;99.80;;;;;;4944659;28;20521;-71
2023/08/24 03:20:49;;;;;;;6.73;6.03;;;25.30;99.90;;;;;;4942440;28;20800;-71
2023/08/24 03:23:15;;;;;;;7.30;6.60;;;25.30;99.90;;;;;;4940087;28;20629;-71
2023/08/24 03:25:42;;;;;;;7.10;6.40;;;25.30;99.90;;;;;;4944278;28;21117;-71
2023/08/24 03:28:08;;;;;;;6.70;6.10;;;25.30;99.90;;;;;;4949735;28;20438;-71
2023/08/24 03:30:36;;;;;;;7.47;6.83;;;25.30;99.90;;;;;;4939852;28;20473;-71
2023/08/24 03:33:02;;;;;;;7.60;6.50;;;25.30;99.90;;;;;;4947938;28;20478;-71
2023/08/24 03:35:29;;;;;;;8.57;7.30;;;25.30;99.90;;;;;;4946566;28;20562;-71
2023/08/24 03:37:55;;;;;;;9.80;6.50;;;25.30;99.90;;;;;;4948229;28;20913;-72
2023/08/24 03:40:21;;;;;;;9.60;7.13;;;25.30;99.90;;;;;;4939930;28;20475;-71
2023/08/24 03:42:46;;;;;;;8.73;7.00;;;25.30;99.90;;;;;;4940018;28;20188;-71
2023/08/24 03:45:12;;;;;;;8.13;6.23;;;25.30;99.90;;;;;;4945308;28;20199;-71
2023/08/24 03:47:37;;;;;;;7.77;6.97;;;25.20;99.90;;;;;;4944412;28;20190;-71
2023/08/24 03:50:03;;;;;;;9.43;6.70;;;25.20;99.90;;;;;;4947524;28;20283;-70
2023/08/24 03:52:28;;;;;;;7.73;7.00;;;25.20;99.90;;;;;;4944837;28;20285;-70
2023/08/24 03:54:54;;;;;;;9.30;7.10;;;25.20;99.90;;;;;;4943729;28;20374;-71
2023/08/24 03:57:20;;;;;;;7.83;7.10;;;25.20;99.90;;;;;;4940663;28;20194;-71
2023/08/24 03:59:45;;;;;;;7.27;6.60;;;25.20;99.90;;;;;;4941397;28;20885;-72
2023/08/24 04:02:11;;;;;;;7.77;7.03;;;25.20;99.90;;;;;;4945409;28;21122;-70
2023/08/24 04:04:37;;;;;;;7.17;6.47;;;25.20;99.90;;;;;;4947289;28;20218;-71
2023/08/24 04:07:02;;;;;;;9.27;7.40;;;25.20;99.90;;;;;;4950513;28;20256;-71
2023/08/24 04:09:28;;;;;;;8.90;6.97;;;25.20;99.90;;;;;;4949132;28;20195;-71
2023/08/24 04:11:54;;;;;;;7.33;6.70;;;25.10;99.90;;;;;;4945388;28;20193;-70
2023/08/24 04:14:20;;;;;;;10.10;8.30;;;25.10;99.90;;;;;;4941925;28;20248;-71
2023/08/24 04:16:45;;;;;;;11.93;7.37;;;25.10;99.90;;;;;;4942063;28;20259;-70
2023/08/24 04:19:11;;;;;;;9.30;7.30;;;25.10;99.90;;;;;;4944751;28;20773;-70
2023/08/24 04:21:36;;;;;;;8.17;7.00;;;25.10;99.90;;;;;;4941097;28;20190;-70
2023/08/24 04:24:02;;;;;;;12.50;7.13;;;25.10;99.90;;;;;;4939830;28;20187;-70
2023/08/24 04:26:28;;;;;;;7.60;6.80;;;25.10;99.90;;;;;;4943799;28;20273;-70
2023/08/24 04:28:56;;;;;;;8.73;7.83;;;25.00;99.90;;;;;;4942543;28;20183;-72
2023/08/24 04:31:22;;;;;;;9.20;6.80;;;25.00;99.90;;;;;;4943782;28;20179;-70
2023/08/24 04:33:48;;;;;;;7.20;6.60;;;25.00;99.90;;;;;;4941042;28;20415;-71
2023/08/24 04:36:13;;;;;;;7.40;6.53;;;25.10;99.90;;;;;;4946680;28;20213;-70
2023/08/24 04:38:39;;;;;;;7.80;6.73;;;25.10;99.90;;;;;;4943847;28;20701;-70
2023/08/24 04:41:08;;;;;;;7.83;7.13;;;25.00;99.90;;;;;;4941238;28;20225;-70
2023/08/24 04:43:34;;;;;;;9.10;7.33;;;25.10;99.90;;;;;;4947673;28;20186;-70
2023/08/24 04:46:00;;;;;;;7.00;6.30;;;25.10;99.90;;;;;;4944537;28;20454;-71
2023/08/24 04:48:26;;;;;;;8.77;6.80;;;25.10;99.90;;;;;;4945727;28;20180;-70
2023/08/24 04:50:53;;;;;;;8.00;6.60;;;25.10;99.90;;;;;;4938686;28;20179;-70
2023/08/24 04:53:19;;;;;;;8.87;7.13;;;25.10;99.90;;;;;;4942224;28;20442;-70
2023/08/24 04:55:46;;;;;;;9.50;7.00;;;25.10;99.90;;;;;;4943137;28;20459;-70
2023/08/24 04:58:15;;;;;;;7.20;6.50;;;25.10;99.90;;;;;;4943979;28;20532;-70
2023/08/24 05:00:41;;;;;;;6.70;5.77;;;25.00;99.90;;;;;;4938461;28;20562;-70
2023/08/24 05:03:07;;;;;;;7.80;6.47;;;25.10;99.90;;;;;;4947248;28;20422;-70
2023/08/24 05:05:34;;;;;;;7.10;6.47;;;25.10;99.90;;;;;;4939730;28;20439;-70
2023/08/24 05:08:01;;;;;;;8.93;7.20;;;25.00;99.90;;;;;;4953757;28;21132;-70
2023/08/24 05:10:30;;;;;;;9.07;6.83;;;25.10;99.90;;;;;;4941710;28;20431;-70
2023/08/24 05:12:56;;;;;;;7.40;6.20;;;25.10;99.90;;;;;;4950957;28;20441;-70
2023/08/24 05:15:21;;;;;;;9.33;6.10;;;25.20;99.90;;;;;;4940173;28;20454;-70
2023/08/24 05:17:47;;;;;;;7.47;6.77;;;25.20;99.90;;;;;;4943969;28;20184;-70
2023/08/24 05:20:12;;;;;;;7.13;6.43;;;25.20;99.90;;;;;;4943190;28;20243;-70
2023/08/24 05:22:39;;;;;;;7.50;6.80;;;25.20;99.90;;;;;;4944569;28;20187;-70
2023/08/24 05:25:05;;;;;;;7.50;6.80;;;25.20;99.90;;;;;;4947827;28;20202;-70
2023/08/24 05:27:30;;;;;;;10.17;7.10;;;25.30;99.90;;;;;;4940603;28;20466;-70
2023/08/24 05:29:56;;;;;;;7.87;7.07;;;25.30;99.90;;;;;;4939885;28;21090;-71
2023/08/24 05:32:22;;;;;;;11.03;6.90;;;25.30;99.90;;;;;;4952138;28;20193;-70
2023/08/24 05:34:47;;;;;;;7.33;6.63;;;25.40;99.90;;;;;;4944237;28;20791;-70
2023/08/24 05:37:13;;;;;;;6.90;6.30;;;25.40;99.90;;;;;;4942042;28;20187;-70
2023/08/24 05:39:39;;;;;;;7.80;6.83;;;25.40;99.90;;;;;;4944951;28;20301;-70
2023/08/24 05:42:05;;;;;;;7.27;6.57;;;25.40;99.90;;;;;;4946213;28;20675;-70
2023/08/24 05:44:31;;;;;;;7.50;6.47;;;25.40;99.90;;;;;;4940866;28;20561;-70
2023/08/24 05:46:56;;;;;;;7.23;6.63;;;25.50;99.90;;;;;;4942188;28;20441;-70
2023/08/24 05:49:22;;;;;;;12.50;7.17;;;25.50;99.90;;;;;;4942998;28;20191;-70
2023/08/24 05:51:50;;;;;;;6.80;6.10;;;25.40;99.90;;;;;;4942191;28;20172;-70
2023/08/24 05:54:18;;;;;;;9.10;7.50;;;25.50;99.90;;;;;;4942372;28;20721;-70
2023/08/24 05:56:44;;;;;;;7.17;6.57;;;25.50;99.90;;;;;;4945390;28;20795;-70
2023/08/24 05:59:10;;;;;;;7.50;6.27;;;25.50;99.90;;;;;;4930941;28;20439;-70
2023/08/24 06:01:38;;;;;;;8.50;7.50;;;25.40;99.90;;;;;;4937486;28;20917;-69
2023/08/24 06:04:08;;;;;;;14.73;7.83;;;25.20;99.90;;;;;;4941086;28;20187;-70
2023/08/24 06:06:33;;;;;;;9.80;6.83;;;25.10;99.90;;;;;;4938907;28;20448;-70
2023/08/24 06:08:59;;;;;;;13.80;6.40;;;25.00;99.90;;;;;;4942086;28;20431;-70
2023/08/24 06:11:25;;;;;;;8.20;6.67;;;25.00;99.90;;;;;;4944186;28;20571;-69
2023/08/24 06:13:53;;;;;;;8.13;6.30;;;24.80;99.90;;;;;;4940413;28;20192;-70
2023/08/24 06:16:19;;;;;;;8.23;6.20;;;24.80;99.90;;;;;;4946448;28;20536;-70
2023/08/24 06:18:44;;;;;;;7.90;6.00;;;24.80;99.90;;;;;;4937120;28;20418;-70
2023/08/24 06:21:10;;;;;;;6.93;6.27;;;24.70;99.90;;;;;;4937166;28;20307;-70
2023/08/24 06:23:36;;;;;;;8.53;5.87;;;24.60;99.90;;;;;;4938857;28;20713;-70
2023/08/24 06:26:01;;;;;;;7.13;6.50;;;24.50;99.90;;;;;;4942222;28;20207;-69
2023/08/24 06:28:27;;;;;;;7.10;5.93;;;24.50;99.90;;;;;;4952213;28;20202;-70
2023/08/24 06:30:55;;;;;;;7.60;5.63;;;24.50;99.90;;;;;;4939993;28;20189;-70
2023/08/24 06:33:20;;;;;;;7.33;6.40;;;24.50;99.90;;;;;;4942572;28;20443;-70
2023/08/24 06:35:46;;;;;;;8.20;5.67;;;24.40;99.90;;;;;;4935605;28;20445;-70
2023/08/24 06:38:13;;;;;;;6.13;5.17;;;24.40;99.90;;;;;;4951735;28;20672;-70
2023/08/24 06:40:39;;;;;;;7.93;5.30;;;24.40;99.90;;;;;;4934776;28;20663;-70
2023/08/24 06:43:05;;;;;;;6.33;5.00;;;24.40;99.90;;;;;;4944188;28;21102;-70
2023/08/24 06:45:31;;;;;;;8.07;5.77;;;24.40;99.90;;;;;;4942019;28;20451;-70
2023/08/24 06:47:56;;;;;;;6.23;5.63;;;24.40;99.90;;;;;;4942511;28;20191;-70
2023/08/24 06:50:22;;;;;;;5.73;5.10;;;24.40;99.90;;;;;;4940286;28;20431;-70
2023/08/24 06:52:48;;;;;;;10.60;5.83;;;24.40;99.90;;;;;;4947766;28;20179;-70
2023/08/24 06:55:13;;;;;;;8.90;5.27;;;24.40;99.90;;;;;;4943397;28;20372;-70
2023/08/24 06:57:39;;;;;;;6.80;6.10;;;24.40;99.90;;;;;;4942322;28;20194;-70
2023/08/24 07:00:07;;;;;;;10.30;9.07;;;24.40;99.90;;;;;;4946630;28;20281;-70
2023/08/24 07:02:33;;;;;;;7.17;6.33;;;24.40;99.90;;;;;;4941501;28;20239;-70
2023/08/24 07:04:59;;;;;;;6.60;5.30;;;24.40;99.90;;;;;;4940817;28;20436;-69
2023/08/24 07:07:25;;;;;;;9.17;7.40;;;24.40;99.90;;;;;;4940060;28;20242;-69
2023/08/24 07:09:51;;;;;;;6.10;5.50;;;24.50;99.90;;;;;;4942197;28;20219;-69
2023/08/24 07:12:16;;;;;;;10.10;5.37;;;24.50;99.90;;;;;;4943762;28;20543;-69
2023/08/24 07:14:42;;;;;;;7.77;6.10;;;24.50;99.90;;;;;;4946686;28;20215;-70
2023/08/24 07:17:07;;;;;;;9.10;7.90;;;24.50;99.90;;;;;;4942398;28;20195;-70
2023/08/24 07:19:33;;;;;;;9.03;6.10;;;24.60;99.90;;;;;;4946688;28;20207;-70
2023/08/24 07:21:59;;;;;;;8.90;7.43;;;24.70;99.90;;;;;;4942899;28;20218;-70
2023/08/24 07:24:29;;;;;;;5.57;4.97;;;24.70;99.90;;;;;;4943492;28;20207;-70
2023/08/24 07:26:55;;;;;;;6.83;5.63;;;24.70;99.90;;;;;;4940955;28;20184;-72
2023/08/24 07:29:21;;;;;;;5.20;4.70;;;24.70;99.90;;;;;;4946240;28;20580;-71
2023/08/24 07:31:47;;;;;;;5.27;4.10;;;24.80;99.90;;;;;;4940893;28;20808;-71
2023/08/24 07:34:13;;;;;;;8.63;7.40;;;24.90;99.90;;;;;;4943822;28;20459;-71
2023/08/24 07:36:38;;;;;;;5.13;4.63;;;25.00;99.90;;;;;;4950572;28;20510;-70
2023/08/24 07:39:04;;;;;;;15.10;13.57;;;25.10;99.90;;;;;;4939872;28;20174;-69
2023/08/24 07:41:30;;;;;;;16.93;7.00;;;25.10;99.90;;;;;;4944904;28;20219;-69
2023/08/24 07:43:55;;;;;;;5.47;4.30;;;25.20;99.90;;;;;;4946050;28;20439;-69
2023/08/24 07:46:21;;;;;;;6.97;5.53;;;25.30;99.60;;;;;;4951213;28;20179;-70
2023/08/24 07:48:47;;;;;;;4.67;4.27;;;25.40;99.40;;;;;;4937632;28;20183;-70
2023/08/24 07:51:12;;;;;;;9.77;7.10;;;25.50;99.30;;;;;;4947532;28;20198;-70
2023/08/24 07:53:38;;;;;;;14.90;12.10;;;25.50;99.20;;;;;;4944832;28;20198;-68
2023/08/24 07:56:04;;;;;;;9.30;8.40;;;25.60;99.10;;;;;;4940757;28;20215;-69
2023/08/24 07:58:31;;;;;;;6.63;6.03;;;25.70;98.90;;;;;;4942723;28;20189;-68
2023/08/24 08:00:57;;;;;;;6.83;5.27;;;25.70;98.90;;;;;;4940295;28;20214;-69
2023/08/24 08:03:22;;;;;;;5.07;4.57;;;25.80;98.80;;;;;;4944795;28;20436;-69
2023/08/24 08:05:48;;;;;;;7.13;5.43;;;25.80;98.80;;;;;;4943204;28;20207;-70
2023/08/24 08:08:14;;;;;;;5.33;4.43;;;25.90;98.70;;;;;;4950387;28;20291;-70
2023/08/24 08:10:40;;;;;;;8.93;5.40;;;26.00;98.80;;;;;;4942457;28;20756;-70
2023/08/24 08:13:07;;;;;;;5.77;5.27;;;26.00;98.70;;;;;;4947714;28;20476;-70
2023/08/24 08:15:33;;;;;;;7.30;6.53;;;26.10;98.80;;;;;;4943336;28;20473;-69
2023/08/24 08:17:59;;;;;;;9.87;8.17;;;26.10;98.70;;;;;;4947563;28;20495;-71
2023/08/24 08:20:24;;;;;;;7.27;6.40;;;26.10;98.60;;;;;;4940934;28;20203;-69
2023/08/24 08:22:50;;;;;;;7.40;5.00;;;26.20;98.80;;;;;;4947737;28;20273;-70
2023/08/24 08:25:19;;;;;;;8.27;5.50;;;26.20;98.80;;;;;;4939187;28;20245;-71
2023/08/24 08:27:44;;;;;;;7.10;4.63;;;26.30;98.80;;;;;;4942143;28;20183;-70
2023/08/24 08:30:11;;;;;;;5.33;4.83;;;26.40;98.70;;;;;;4942961;28;20441;-69
2023/08/24 08:32:36;;;;;;;8.50;7.37;;;26.40;98.60;;;;;;4940203;28;20284;-68
2023/08/24 08:35:04;;;;;;;9.43;7.53;;;26.40;98.50;;;;;;4945006;28;21065;-69
2023/08/24 08:37:32;;;;;;;7.80;5.27;;;26.50;98.50;;;;;;4960451;28;20274;-69
2023/08/24 08:39:58;;;;;;;7.40;4.13;;;26.60;98.40;;;;;;4942662;28;20952;-69
2023/08/24 08:42:23;;;;;;;9.33;4.87;;;26.60;98.30;;;;;;4948441;28;20436;-71
2023/08/24 08:44:49;;;;;;;6.23;5.30;;;26.70;98.20;;;;;;4944233;28;20245;-71
2023/08/24 08:47:16;;;;;;;8.30;6.63;;;26.70;98.30;;;;;;4943866;28;20418;-71
2023/08/24 08:49:47;;;;;;;7.77;6.97;;;26.80;98.10;;;;;;4949857;28;20427;-71
2023/08/24 08:52:13;;;;;;;5.63;5.10;;;26.80;98.00;;;;;;4938758;28;20435;-71
2023/08/24 08:54:38;;;;;;;7.77;5.40;;;27.00;98.10;;;;;;4941619;28;20475;-71
2023/08/24 08:57:04;;;;;;;10.70;4.87;;;27.00;98.10;;;;;;4945728;28;20186;-70
2023/08/24 08:59:30;;;;;;;6.57;5.60;;;27.00;97.90;;;;;;4944369;28;20195;-70
2023/08/24 09:02:00;;;;;;;4.60;4.20;;;27.10;98.00;;;;;;4936669;28;21037;-70
2023/08/24 09:04:27;;;;;;;7.07;4.20;;;27.10;98.20;;;;;;4939082;28;21051;-70
2023/08/24 09:06:53;;;;;;;5.63;4.93;;;27.20;98.20;;;;;;4943754;28;20423;-71
2023/08/24 09:09:18;;;;;;;7.30;4.20;;;27.30;98.10;;;;;;4936813;28;20941;-71
2023/08/24 09:11:47;;;;;;;6.27;4.83;;;27.30;98.00;;;;;;4936292;28;20195;-71
2023/08/24 09:14:12;;;;;;;7.43;4.57;;;27.40;98.10;;;;;;4941407;28;20580;-69
2023/08/24 09:16:40;;;;;;;13.97;5.57;;;27.40;98.10;;;;;;4942297;28;20443;-69
2023/08/24 09:19:09;;;;;;;6.63;5.20;;;27.50;98.30;;;;;;4940105;28;20187;-70
2023/08/24 09:21:47;;;;;;;9.20;5.13;;;27.50;98.50;;;;;;4945918;28;20486;-71
2023/08/24 09:24:13;;;;;;;9.57;5.10;;;27.60;98.40;;;;;;4947390;28;20533;-69
2023/08/24 09:26:42;;;;;;;6.30;5.20;;;27.60;98.50;;;;;;4942152;28;20444;-71
2023/08/24 09:29:15;;;;;;;5.97;4.90;;;27.70;98.70;;;;;;4947128;28;20181;-71
2023/08/24 09:31:45;;;;;;;7.70;4.80;;;27.80;98.50;;;;;;4948255;28;20481;-71
2023/08/24 09:34:11;;;;;;;8.00;5.10;;;27.90;98.40;;;;;;4950959;28;20481;-70
2023/08/24 09:36:38;;;;;;;7.80;5.10;;;28.00;98.30;;;;;;4942943;28;20447;-70
2023/08/24 09:39:04;;;;;;;5.97;5.00;;;28.00;98.20;;;;;;4944215;28;20447;-70
2023/08/24 09:41:40;;;;;;;5.80;5.30;;;28.10;98.30;;;;;;4945779;28;20552;-69
2023/08/24 09:44:07;;;;;;;6.70;6.10;;;28.20;98.30;;;;;;4945099;28;20423;-70
2023/08/24 09:46:33;;;;;;;5.90;5.30;;;28.30;98.20;;;;;;4944115;28;20440;-70
2023/08/24 09:49:00;;;;;;;8.23;5.20;;;28.40;98.50;;;;;;4940962;28;20447;-71
2023/08/24 09:51:29;;;;;;;10.83;9.73;;;28.40;98.40;;;;;;4938075;28;20264;-71
2023/08/24 09:54:01;;;;;;;7.57;5.70;;;28.50;98.60;;;;;;4945027;28;20518;-71
2023/08/24 09:56:28;;;;;;;6.17;5.60;;;28.60;98.70;;;;;;4937256;28;20942;-70
2023/08/24 09:58:55;;;;;;;8.20;6.57;;;28.70;98.70;;;;;;4945254;28;20415;-70
2023/08/24 10:01:21;;;;;;;8.23;5.73;;;28.80;98.50;;;;;;4949740;28;20889;-71
2023/08/24 10:03:57;;;;;;;6.30;5.70;;;28.90;98.50;;;;;;4945830;28;20418;-72
2023/08/24 10:06:28;;;;;;;8.37;6.40;;;29.00;98.40;;;;;;4951624;28;20452;-72
2023/08/24 10:09:03;;;;;;;6.90;5.63;;;29.10;98.30;;;;;;4941491;28;20504;-71
2023/08/24 10:11:32;;;;;;;8.30;5.60;;;29.20;98.20;;;;;;4943980;28;20901;-72
2023/08/24 10:14:07;;;;;;;8.33;6.17;;;29.30;98.00;;;;;;4941451;28;20633;-72
2023/08/24 10:16:34;;;;;;;6.80;6.03;;;29.40;98.10;;;;;;4941590;28;21060;-72
2023/08/24 10:19:01;;;;;;;8.27;5.77;;;29.40;98.00;;;;;;4942732;28;20930;-71
2023/08/24 10:21:28;;;;;;;6.87;6.27;;;29.50;97.90;;;;;;4937550;28;21068;-71
2023/08/24 10:23:56;;;;;;;6.50;5.83;;;29.60;98.10;;;;;;4940280;28;20435;-71
2023/08/24 10:26:23;;;;;;;11.33;6.00;;;29.70;98.40;;;;;;4945469;28;20431;-71
2023/08/24 10:28:51;;;;;;;7.00;6.20;;;29.70;97.90;;;;;;4941369;28;20439;-71
2023/08/24 10:31:17;;;;;;;6.03;5.43;;;29.70;98.00;;;;;;4946000;28;20443;-71
2023/08/24 10:33:45;;;;;;;7.60;5.60;;;29.70;98.10;;;;;;4950889;28;20520;-71
2023/08/24 10:36:17;;;;;;;6.20;5.60;;;29.80;97.90;;;;;;4946090;28;20549;-71
2023/08/24 10:38:44;;;;;;;6.37;5.60;;;29.90;97.90;;;;;;4947146;28;20443;-71
2023/08/24 10:41:13;;;;;;;6.47;5.97;;;29.90;97.70;;;;;;4946514;28;20586;-71
2023/08/24 10:43:40;;;;;;;6.27;5.67;;;29.90;97.60;;;;;;4946254;28;20449;-71
2023/08/24 10:46:13;;;;;;;7.73;5.87;;;29.90;97.60;;;;;;4951905;28;20436;-71
2023/08/24 10:48:42;;;;;;;7.40;6.20;;;30.00;97.40;;;;;;4946803;28;21159;-71
2023/08/24 10:51:17;;;;;;;7.97;6.43;;;30.00;97.60;;;;;;4950010;28;20433;-71
2023/08/24 10:53:47;;;;;;;6.63;5.97;;;30.10;97.40;;;;;;4944226;28;20417;-71
2023/08/24 10:56:17;;;;;;;7.20;5.27;;;30.20;97.30;;;;;;4942405;28;20474;-71
2023/08/24 10:58:44;;;;;;;7.40;5.53;;;30.20;97.10;;;;;;4939528;28;20458;-71
2023/08/24 11:01:21;;;;;;;13.03;5.97;;;30.20;96.90;;;;;;4962745;28;20497;-71
2023/08/24 11:04:00;;;;;;;8.27;6.00;;;30.30;96.90;;;;;;4942571;28;20984;-71
2023/08/24 11:06:28;;;;;;;6.87;6.20;;;30.30;96.70;;;;;;4951514;28;20499;-71
2023/08/24 11:09:13;;;;;;;9.57;6.60;;;30.30;96.70;;;;;;4951997;28;20766;-71
2023/08/24 11:11:39;;;;;;;6.63;6.10;;;30.40;96.70;;;;;;4949885;28;20476;-71
2023/08/24 11:14:32;;;;;;;9.93;6.63;;;30.40;96.50;;;;;;4946101;28;21994;-71
2023/08/24 11:17:00;;;;;;;6.50;5.80;;;30.50;96.50;;;;;;4940809;28;20825;-71
2023/08/24 11:19:25;;;;;;;9.90;6.80;;;30.60;96.40;;;;;;4948104;28;20443;-72
2023/08/24 11:21:51;;;;;;;8.93;6.00;;;30.60;96.20;;;;;;4946663;28;20449;-72
2023/08/24 11:24:17;;;;;;;7.20;6.07;;;30.70;96.60;;;;;;4940052;28;20212;-72
2023/08/24 11:26:48;;;;;;;7.20;6.00;;;30.80;96.60;;;;;;4949195;28;20187;-71
2023/08/24 11:29:18;;;;;;;7.10;6.07;;;31.00;96.60;;;;;;4949220;28;20193;-71
2023/08/24 11:31:43;;;;;;;8.80;6.50;;;31.20;96.20;;;;;;4943074;28;20482;-71
2023/08/24 11:34:10;;;;;;;9.30;7.37;;;31.30;95.90;;;;;;4943847;28;20476;-70
2023/08/24 11:37:02;;;;;;;6.30;5.73;;;31.40;95.80;;;;;;4948973;28;20195;-72
2023/08/24 11:39:31;;;;;;;7.73;5.87;;;31.50;95.80;;;;;;4946601;28;20493;-73
2023/08/24 11:42:02;;;;;;;6.93;6.17;;;31.70;95.50;;;;;;4932292;28;20455;-71
2023/08/24 11:44:47;;;;;;;6.40;5.87;;;31.90;95.20;;;;;;4947810;28;20847;-72
2023/08/24 11:47:13;;;;;;;9.57;5.63;;;32.10;95.30;;;;;;4940646;28;20446;-72
2023/08/24 11:49:38;;;;;;;12.53;6.70;;;32.20;94.90;;;;;;4944702;28;20450;-71
2023/08/24 11:52:04;;;;;;;7.40;6.80;;;32.40;94.70;;;;;;4941483;28;20241;-71
2023/08/24 11:54:33;;;;;;;7.30;6.60;;;32.60;94.50;;;;;;4945553;28;20574;-72
2023/08/24 11:56:59;;;;;;;7.43;6.20;;;32.80;94.20;;;;;;4945049;28;20180;-73
2023/08/24 11:59:25;;;;;;;7.15;6.35;;;33.00;93.80;;;;;;4947006;28;20431;-72
2023/08/24 12:01:52;;;;;;;6.67;6.03;;;33.10;93.60;;;;;;4947495;28;20541;-72
2023/08/24 12:04:18;;;;;;;6.17;5.67;;;33.30;93.50;;;;;;4947917;28;20463;-73
2023/08/24 12:06:44;;;;;;;13.03;6.50;;;33.60;93.30;;;;;;4946176;28;20409;-74
2023/08/24 12:09:10;;;;;;;11.17;6.00;;;33.70;93.00;;;;;;4946464;28;20205;-72
2023/08/24 12:11:36;;;;;;;6.90;6.30;;;33.80;93.10;;;;;;4948120;28;20179;-74
2023/08/24 12:14:02;;;;;;;7.13;6.37;;;33.90;92.30;;;;;;4942893;28;20179;-74
2023/08/24 12:16:32;;;;;;;9.13;6.53;;;34.10;92.40;;;;;;4945625;28;20473;-73
2023/08/24 12:19:00;;;;;;;7.53;6.83;;;34.30;92.40;;;;;;4938951;28;20810;-73
2023/08/24 12:21:26;;;;;;;7.23;6.47;;;34.50;92.40;;;;;;4944731;28;20464;-73
2023/08/24 12:23:58;;;;;;;8.90;6.20;;;34.70;92.10;;;;;;4946341;28;20809;-74
2023/08/24 12:26:24;;;;;;;6.90;6.20;;;35.00;91.80;;;;;;4945406;28;20497;-73
2023/08/24 12:28:54;;;;;;;8.83;7.10;;;35.30;91.60;;;;;;4943842;28;20581;-74
2023/08/24 12:31:20;;;;;;;7.30;6.70;;;35.50;91.00;;;;;;4939073;28;20894;-74
2023/08/24 12:33:56;;;;;;;7.47;6.70;;;35.60;90.20;;;;;;4941284;28;20441;-72
2023/08/24 12:36:22;;;;;;;7.60;6.80;;;35.60;90.00;;;;;;4949191;28;20281;-71
2023/08/24 12:38:48;;;;;;;9.90;7.03;;;35.70;89.60;;;;;;4939780;28;21072;-73
2023/08/24 12:41:13;;;;;;;8.37;5.93;;;35.80;89.10;;;;;;4940926;28;20745;-71
2023/08/24 12:43:39;;;;;;;9.63;6.70;;;35.80;87.70;;;;;;4945909;28;20193;-73
2023/08/24 12:46:04;;;;;;;13.63;5.90;;;35.80;87.40;;;;;;4945405;28;20203;-72